createdAt,value
2022-08-02T00:00:31.571Z,22.56
2022-08-02T00:01:31.669Z,22.61
2022-08-02T00:02:31.565Z,22.54
2022-08-02T00:03:31.558Z,22.57
2022-08-02T00:04:31.558Z,22.63
2022-08-02T00:05:31.565Z,22.59
2022-08-02T00:06:31.547Z,22.63
2022-08-02T00:07:31.553Z,22.56
2022-08-02T00:08:31.540Z,22.56
2022-08-02T00:09:31.536Z,22.56
2022-08-02T00:10:31.534Z,22.56
2022-08-02T00:11:31.530Z,22.61
2022-08-02T00:12:31.521Z,22.57
2022-08-02T00:13:31.516Z,22.69
2022-08-02T00:14:31.515Z,22.75
2022-08-02T00:15:31.507Z,22.76
2022-08-02T00:16:37.987Z,22.82
2022-08-02T00:17:31.501Z,22.84
2022-08-02T00:18:31.498Z,22.85
2022-08-02T00:19:31.492Z,22.94
2022-08-02T00:20:31.504Z,22.99
2022-08-02T00:21:31.482Z,22.94
2022-08-02T00:22:31.482Z,23.01
2022-08-02T00:23:31.476Z,22.96
2022-08-02T00:24:31.493Z,23.04
2022-08-02T00:25:31.466Z,22.99
2022-08-02T00:26:31.465Z,22.97
2022-08-02T00:27:31.460Z,23.00
2022-08-02T00:28:31.454Z,23.03
2022-08-02T00:29:31.450Z,22.96
2022-08-02T00:30:31.447Z,22.89
2022-08-02T00:31:31.445Z,22.84
2022-08-02T00:32:31.437Z,22.85
2022-08-02T00:34:05.673Z,22.78
2022-08-02T00:34:35.010Z,22.79
2022-08-02T00:35:31.425Z,22.75
2022-08-02T00:36:31.421Z,22.76
2022-08-02T00:37:31.416Z,22.74
2022-08-02T00:38:31.411Z,22.74
2022-08-02T00:39:34.665Z,22.75
2022-08-02T00:40:31.419Z,22.70
2022-08-02T00:41:31.400Z,22.67
2022-08-02T00:42:31.395Z,22.63
2022-08-02T00:43:31.398Z,22.54
2022-08-02T00:44:31.384Z,22.45
2022-08-02T00:46:02.229Z,22.45
2022-08-02T00:46:31.375Z,22.45
2022-08-02T00:47:31.472Z,22.45
2022-08-02T00:48:31.366Z,22.48
2022-08-02T00:49:31.435Z,22.52
2022-08-02T00:50:31.357Z,22.42
2022-08-02T00:51:31.355Z,22.35
2022-08-02T00:52:31.449Z,22.36
2022-08-02T00:53:31.346Z,22.33
2022-08-02T00:54:31.342Z,22.23
2022-08-02T00:55:31.571Z,22.17
2022-08-02T00:56:31.331Z,22.20
2022-08-02T00:57:31.377Z,22.31
2022-08-02T00:58:31.321Z,22.30
2022-08-02T00:59:31.319Z,22.33
2022-08-02T01:00:31.317Z,22.38
2022-08-02T01:01:31.340Z,22.41
2022-08-02T01:02:31.354Z,22.42
2022-08-02T01:03:31.301Z,22.46
2022-08-02T01:04:32.403Z,22.49
2022-08-02T01:05:39.029Z,22.51
2022-08-02T01:06:31.286Z,22.49
2022-08-02T01:07:31.282Z,22.44
2022-08-02T01:08:31.779Z,22.45
2022-08-02T01:09:31.276Z,22.46
2022-08-02T01:10:31.268Z,22.45
2022-08-02T01:11:31.264Z,22.46
2022-08-02T01:12:31.260Z,22.39
2022-08-02T01:13:31.256Z,22.42
2022-08-02T01:14:31.247Z,22.46
2022-08-02T01:15:35.934Z,22.39
2022-08-02T01:16:31.240Z,22.42
2022-08-02T01:17:31.236Z,22.41
2022-08-02T01:18:31.231Z,22.44
2022-08-02T01:19:31.228Z,22.41
2022-08-02T01:20:31.221Z,22.31
2022-08-02T01:21:31.220Z,22.44
2022-08-02T01:22:59.403Z,22.38
2022-08-02T01:23:31.209Z,22.42
2022-08-02T01:24:31.202Z,22.39
2022-08-02T01:25:31.200Z,22.38
2022-08-02T01:26:31.193Z,22.35
2022-08-02T01:27:31.190Z,22.26
2022-08-02T01:28:31.183Z,22.23
2022-08-02T01:29:31.178Z,22.21
2022-08-02T01:30:31.173Z,22.27
2022-08-02T01:31:31.170Z,22.20
2022-08-02T01:32:31.164Z,22.04
2022-08-02T01:33:31.161Z,22.06
2022-08-02T01:34:31.155Z,22.04
2022-08-02T01:35:50.705Z,22.08
2022-08-02T01:36:31.145Z,22.12
2022-08-02T01:37:31.141Z,22.06
2022-08-02T01:38:31.134Z,21.94
2022-08-02T01:39:32.495Z,22.01
2022-08-02T01:40:31.126Z,21.94
2022-08-02T01:41:31.122Z,21.94
2022-08-02T01:42:31.117Z,21.96
2022-08-02T01:43:31.112Z,22.05
2022-08-02T01:44:31.104Z,22.02
2022-08-02T01:45:31.101Z,22.04
2022-08-02T01:46:31.094Z,22.02
2022-08-02T01:47:31.094Z,21.96
2022-08-02T01:48:31.085Z,22.01
2022-08-02T01:49:31.225Z,22.04
2022-08-02T01:50:31.076Z,21.90
2022-08-02T01:51:34.562Z,21.90
2022-08-02T01:52:31.068Z,21.85
2022-08-02T01:53:31.063Z,21.85
2022-08-02T01:54:31.054Z,21.94
2022-08-02T01:55:35.322Z,21.85
2022-08-02T01:56:31.046Z,21.82
2022-08-02T01:57:31.041Z,21.81
2022-08-02T01:58:31.034Z,21.79
2022-08-02T01:59:31.032Z,21.73
2022-08-02T02:00:31.025Z,21.77
2022-08-02T02:01:31.058Z,21.75
2022-08-02T02:02:31.878Z,21.77
2022-08-02T02:03:31.011Z,21.79
2022-08-02T02:04:31.007Z,21.73
2022-08-02T02:05:31.002Z,21.89
2022-08-02T02:06:30.994Z,21.81
2022-08-02T02:07:30.991Z,21.77
2022-08-02T02:08:31.185Z,21.74
2022-08-02T02:09:30.979Z,21.77
2022-08-02T02:10:30.974Z,21.66
2022-08-02T02:12:14.714Z,21.59
2022-08-02T02:12:30.964Z,21.58
2022-08-02T02:13:33.677Z,21.53
2022-08-02T02:14:30.954Z,21.48
2022-08-02T02:15:30.950Z,21.46
2022-08-02T02:16:30.941Z,21.51
2022-08-02T02:17:53.160Z,21.37
2022-08-02T02:18:30.930Z,21.38
2022-08-02T02:19:30.929Z,21.52
2022-08-02T02:20:30.921Z,21.48
2022-08-02T02:21:31.384Z,21.40
2022-08-02T02:22:30.912Z,21.52
2022-08-02T02:23:35.476Z,21.46
2022-08-02T02:24:30.901Z,21.38
2022-08-02T02:25:35.773Z,21.36
2022-08-02T02:26:31.729Z,21.37
2022-08-02T02:27:30.887Z,21.40
2022-08-02T02:28:30.881Z,21.33
2022-08-02T02:29:30.876Z,21.34
2022-08-02T02:30:30.868Z,21.30
2022-08-02T02:31:30.868Z,21.16
2022-08-02T02:32:30.860Z,21.31
2022-08-02T02:33:30.856Z,21.31
2022-08-02T02:34:30.847Z,21.36
2022-08-02T02:35:30.846Z,21.46
2022-08-02T02:36:30.847Z,21.38
2022-08-02T02:37:30.835Z,21.36
2022-08-02T02:38:30.830Z,21.33
2022-08-02T02:39:30.875Z,21.42
2022-08-02T02:40:30.818Z,21.45
2022-08-02T02:41:30.814Z,21.36
2022-08-02T02:42:30.807Z,21.30
2022-08-02T02:43:30.803Z,21.27
2022-08-02T02:44:30.795Z,21.16
2022-08-02T02:45:30.794Z,21.27
2022-08-02T02:46:30.801Z,21.22
2022-08-02T02:47:41.541Z,21.22
2022-08-02T02:48:30.777Z,21.30
2022-08-02T02:49:30.884Z,21.27
2022-08-02T02:50:30.764Z,21.26
2022-08-02T02:51:30.764Z,21.28
2022-08-02T02:52:30.756Z,21.27
2022-08-02T02:53:30.755Z,21.21
2022-08-02T02:54:34.068Z,21.13
2022-08-02T02:55:30.742Z,21.18
2022-08-02T02:56:30.733Z,21.21
2022-08-02T02:57:30.732Z,21.21
2022-08-02T02:58:30.722Z,21.26
2022-08-02T02:59:30.720Z,21.22
2022-08-02T03:00:30.713Z,21.18
2022-08-02T03:01:55.780Z,21.22
2022-08-02T03:02:30.700Z,21.16
2022-08-02T03:03:30.697Z,21.22
2022-08-02T03:04:36.142Z,21.09
2022-08-02T03:05:30.685Z,21.16
2022-08-02T03:06:30.678Z,21.18
2022-08-02T03:07:30.674Z,21.16
2022-08-02T03:08:30.667Z,21.05
2022-08-02T03:09:30.664Z,21.11
2022-08-02T03:10:30.659Z,21.08
2022-08-02T03:11:30.652Z,21.15
2022-08-02T03:12:32.354Z,21.08
2022-08-02T03:13:33.035Z,21.06
2022-08-02T03:14:30.634Z,21.11
2022-08-02T03:15:30.630Z,21.06
2022-08-02T03:16:30.625Z,21.16
2022-08-02T03:17:30.620Z,21.05
2022-08-02T03:18:30.612Z,21.09
2022-08-02T03:19:33.213Z,21.13
2022-08-02T03:20:30.601Z,21.03
2022-08-02T03:21:30.597Z,20.93
2022-08-02T03:22:30.590Z,20.94
2022-08-02T03:23:30.585Z,20.91
2022-08-02T03:24:30.580Z,20.88
2022-08-02T03:25:30.576Z,20.94
2022-08-02T03:26:30.567Z,20.96
2022-08-02T03:27:30.566Z,20.87
2022-08-02T03:28:30.558Z,21.01
2022-08-02T03:29:34.456Z,21.08
2022-08-02T03:30:30.545Z,20.98
2022-08-02T03:31:32.802Z,20.97
2022-08-02T03:32:30.535Z,20.91
2022-08-02T03:33:30.530Z,20.90
2022-08-02T03:34:30.525Z,20.97
2022-08-02T03:35:30.519Z,20.90
2022-08-02T03:36:30.513Z,20.90
2022-08-02T03:37:30.508Z,20.88
2022-08-02T03:38:30.502Z,20.88
2022-08-02T03:39:30.499Z,20.75
2022-08-02T03:40:30.491Z,20.64
2022-08-02T03:41:30.487Z,20.72
2022-08-02T03:42:30.481Z,20.69
2022-08-02T03:43:30.475Z,20.71
2022-08-02T03:44:30.468Z,20.76
2022-08-02T03:45:30.464Z,20.73
2022-08-02T03:46:30.456Z,20.71
2022-08-02T03:47:30.452Z,20.79
2022-08-02T03:48:34.618Z,20.82
2022-08-02T03:49:30.524Z,20.91
2022-08-02T03:50:30.434Z,20.87
2022-08-02T03:51:30.431Z,20.87
2022-08-02T03:52:30.423Z,20.93
2022-08-02T03:53:30.419Z,20.87
2022-08-02T03:54:34.417Z,20.91
2022-08-02T03:55:30.408Z,20.94
2022-08-02T03:56:30.406Z,20.93
2022-08-02T03:57:30.396Z,20.98
2022-08-02T03:58:30.390Z,20.94
2022-08-02T03:59:31.976Z,20.85
2022-08-02T04:01:30.393Z,21.00
2022-08-02T04:02:30.374Z,20.85
2022-08-02T04:03:30.363Z,20.91
2022-08-02T04:04:30.358Z,20.87
2022-08-02T04:05:30.349Z,20.87
2022-08-02T04:06:30.348Z,20.93
2022-08-02T04:08:32.527Z,20.85
2022-08-02T04:08:35.615Z,20.90
2022-08-02T04:09:30.329Z,20.82
2022-08-02T04:10:30.324Z,20.85
2022-08-02T04:11:30.322Z,20.85
2022-08-02T04:12:30.316Z,20.90
2022-08-02T04:13:34.493Z,20.90
2022-08-02T04:14:30.302Z,20.94
2022-08-02T04:15:30.296Z,21.05
2022-08-02T04:16:30.293Z,21.05
2022-08-02T04:17:30.282Z,20.97
2022-08-02T04:18:30.280Z,21.05
2022-08-02T04:19:30.272Z,21.11
2022-08-02T04:20:30.273Z,21.09
2022-08-02T04:21:48.593Z,21.03
2022-08-02T04:22:30.257Z,21.05
2022-08-02T04:23:30.251Z,21.08
2022-08-02T04:24:30.245Z,21.05
2022-08-02T04:25:35.301Z,20.97
2022-08-02T04:26:30.234Z,21.08
2022-08-02T04:27:50.046Z,21.11
2022-08-02T04:28:30.224Z,21.01
2022-08-02T04:29:30.214Z,21.00
2022-08-02T04:30:30.211Z,21.05
2022-08-02T04:31:30.205Z,21.08
2022-08-02T04:32:30.200Z,21.12
2022-08-02T04:33:30.193Z,21.15
2022-08-02T04:34:30.189Z,21.16
2022-08-02T04:35:30.183Z,21.15
2022-08-02T04:36:30.894Z,21.13
2022-08-02T04:37:30.170Z,21.18
2022-08-02T04:38:30.166Z,21.22
2022-08-02T04:39:30.158Z,21.19
2022-08-02T04:40:30.155Z,21.24
2022-08-02T04:41:30.146Z,21.18
2022-08-02T04:42:30.144Z,21.21
2022-08-02T04:43:30.139Z,21.18
2022-08-02T04:44:30.131Z,21.16
2022-08-02T04:45:30.126Z,21.46
2022-08-02T04:46:30.119Z,21.89
2022-08-02T04:48:02.549Z,22.19
2022-08-02T04:48:30.109Z,22.46
2022-08-02T04:49:30.162Z,22.96
2022-08-02T04:50:30.097Z,23.44
2022-08-02T04:51:37.919Z,24.04
2022-08-02T04:52:30.090Z,24.44
2022-08-02T04:53:30.086Z,24.94
2022-08-02T04:54:30.081Z,25.26
2022-08-02T04:55:30.288Z,25.45
2022-08-02T04:56:30.074Z,25.59
2022-08-02T04:57:30.072Z,25.72
2022-08-02T04:58:44.090Z,26.12
2022-08-02T04:59:30.066Z,26.36
2022-08-02T05:00:30.100Z,26.68
2022-08-02T05:01:30.061Z,26.96
2022-08-02T05:02:30.058Z,27.08
2022-08-02T05:03:30.059Z,27.16
2022-08-02T05:04:30.057Z,27.21
2022-08-02T05:05:30.056Z,27.16
2022-08-02T05:06:30.058Z,27.15
2022-08-02T05:07:30.053Z,27.09
2022-08-02T05:08:30.051Z,27.06
2022-08-02T05:09:30.051Z,27.05
2022-08-02T05:10:30.053Z,26.97
2022-08-02T05:11:36.129Z,27.01
2022-08-02T05:12:30.050Z,27.20
2022-08-02T05:13:30.047Z,27.34
2022-08-02T05:14:30.048Z,27.45
2022-08-02T05:15:33.247Z,27.58
2022-08-02T05:16:30.885Z,27.65
2022-08-02T05:17:30.052Z,27.74
2022-08-02T05:18:30.046Z,27.74
2022-08-02T05:19:30.045Z,27.80
2022-08-02T05:20:30.047Z,27.80
2022-08-02T05:21:30.042Z,27.72
2022-08-02T05:22:30.041Z,27.77
2022-08-02T05:23:30.040Z,27.71
2022-08-02T05:24:30.038Z,27.66
2022-08-02T05:25:30.038Z,27.68
2022-08-02T05:26:30.042Z,27.61
2022-08-02T05:27:30.037Z,27.28
2022-08-02T05:28:30.034Z,26.94
2022-08-02T05:29:30.034Z,26.60
2022-08-02T05:30:30.029Z,26.53
2022-08-02T05:31:30.031Z,26.57
2022-08-02T05:32:30.027Z,26.60
2022-08-02T05:33:30.027Z,26.53
2022-08-02T05:34:30.027Z,26.53
2022-08-02T05:35:30.023Z,26.49
2022-08-02T05:36:30.019Z,26.60
2022-08-02T05:37:32.011Z,26.68
2022-08-02T05:38:30.022Z,26.75
2022-08-02T05:39:31.744Z,26.79
2022-08-02T05:40:30.014Z,26.79
2022-08-02T05:41:30.017Z,26.98
2022-08-02T05:42:30.010Z,26.94
2022-08-02T05:43:30.010Z,27.05
2022-08-02T05:44:30.006Z,27.02
2022-08-02T05:45:30.006Z,26.98
2022-08-02T05:46:30.003Z,27.05
2022-08-02T05:47:30.004Z,27.02
2022-08-02T05:48:32.186Z,27.06
2022-08-02T05:49:30.030Z,27.02
2022-08-02T05:50:30.000Z,26.97
2022-08-02T05:51:29.996Z,26.91
2022-08-02T05:52:29.993Z,27.01
2022-08-02T05:53:29.992Z,26.97
2022-08-02T05:54:29.992Z,26.98
2022-08-02T05:55:29.990Z,26.93
2022-08-02T05:56:29.988Z,26.73
2022-08-02T05:57:29.987Z,26.71
2022-08-02T05:58:29.986Z,26.56
2022-08-02T05:59:29.983Z,26.54
2022-08-02T06:00:29.983Z,26.34
2022-08-02T06:01:30.100Z,26.34
2022-08-02T06:02:30.581Z,26.27
2022-08-02T06:03:29.977Z,26.21
2022-08-02T06:04:29.974Z,26.13
2022-08-02T06:05:29.975Z,26.12
2022-08-02T06:06:29.969Z,26.16
2022-08-02T06:07:29.969Z,26.04
2022-08-02T06:08:29.967Z,26.03
2022-08-02T06:09:29.965Z,25.93
2022-08-02T06:10:29.968Z,26.04
2022-08-02T06:11:29.962Z,26.04
2022-08-02T06:12:29.959Z,26.12
2022-08-02T06:13:29.958Z,26.16
2022-08-02T06:14:30.559Z,26.19
2022-08-02T06:15:29.956Z,26.20
2022-08-02T06:16:32.511Z,26.20
2022-08-02T06:17:29.952Z,26.20
2022-08-02T06:18:29.949Z,26.19
2022-08-02T06:19:29.950Z,26.13
2022-08-02T06:20:29.959Z,26.21
2022-08-02T06:22:34.891Z,26.12
2022-08-02T06:22:37.679Z,26.16
2022-08-02T06:23:29.943Z,26.04
2022-08-02T06:24:29.940Z,26.09
2022-08-02T06:25:51.080Z,26.11
2022-08-02T06:26:29.936Z,26.04
2022-08-02T06:27:29.939Z,26.08
2022-08-02T06:28:29.930Z,26.06
2022-08-02T06:29:29.936Z,26.08
2022-08-02T06:30:29.928Z,25.98
2022-08-02T06:31:29.932Z,26.03
2022-08-02T06:32:29.924Z,26.17
2022-08-02T06:33:29.926Z,26.23
2022-08-02T06:34:29.920Z,26.27
2022-08-02T06:35:29.922Z,26.29
2022-08-02T06:36:29.920Z,26.31
2022-08-02T06:37:29.918Z,26.29
2022-08-02T06:38:29.913Z,26.31
2022-08-02T06:39:29.916Z,26.28
2022-08-02T06:40:29.910Z,26.28
2022-08-02T06:41:29.912Z,26.21
2022-08-02T06:42:29.907Z,26.12
2022-08-02T06:44:49.921Z,26.01
2022-08-02T06:45:29.904Z,25.76
2022-08-02T06:46:37.700Z,25.74
2022-08-02T06:47:29.901Z,25.53
2022-08-02T06:48:29.899Z,25.35
2022-08-02T06:49:51.940Z,25.19
2022-08-02T06:50:29.896Z,25.19
2022-08-02T06:51:29.893Z,25.09
2022-08-02T06:52:30.609Z,25.11
2022-08-02T06:53:29.887Z,25.24
2022-08-02T06:54:29.888Z,25.26
2022-08-02T06:55:29.884Z,25.23
2022-08-02T06:56:29.884Z,25.35
2022-08-02T06:57:29.886Z,25.35
2022-08-02T06:58:29.881Z,25.44
2022-08-02T06:59:29.875Z,25.39
2022-08-02T07:00:29.876Z,25.46
2022-08-02T07:01:38.659Z,25.57
2022-08-02T07:02:29.871Z,25.49
2022-08-02T07:03:29.867Z,25.36
2022-08-02T07:04:29.866Z,25.41
2022-08-02T07:05:29.862Z,25.38
2022-08-02T07:06:29.861Z,25.39
2022-08-02T07:07:29.859Z,25.27
2022-08-02T07:08:29.859Z,25.30
2022-08-02T07:09:29.855Z,25.31
2022-08-02T07:10:29.858Z,25.31
2022-08-02T07:11:29.849Z,25.30
2022-08-02T07:12:29.866Z,25.35
2022-08-02T07:13:29.846Z,25.45
2022-08-02T07:14:29.846Z,25.63
2022-08-02T07:15:29.842Z,25.67
2022-08-02T07:16:29.842Z,25.63
2022-08-02T07:17:29.837Z,25.75
2022-08-02T07:18:29.839Z,25.78
2022-08-02T07:19:37.743Z,25.91
2022-08-02T07:20:29.836Z,25.89
2022-08-02T07:21:45.829Z,25.91
2022-08-02T07:22:29.830Z,25.89
2022-08-02T07:23:29.827Z,25.94
2022-08-02T07:24:29.927Z,25.94
2022-08-02T07:26:02.340Z,25.82
2022-08-02T07:26:29.822Z,25.89
2022-08-02T07:27:29.820Z,25.83
2022-08-02T07:28:29.818Z,25.81
2022-08-02T07:29:33.596Z,25.86
2022-08-02T07:30:29.815Z,25.98
2022-08-02T07:31:29.812Z,25.86
2022-08-02T07:32:29.816Z,25.86
2022-08-02T07:33:38.931Z,25.71
2022-08-02T07:34:29.807Z,25.61
2022-08-02T07:35:29.804Z,25.48
2022-08-02T07:36:29.808Z,25.34
2022-08-02T07:37:53.472Z,25.07
2022-08-02T07:38:29.801Z,25.05
2022-08-02T07:39:29.797Z,25.01
2022-08-02T07:40:29.810Z,24.70
2022-08-02T07:41:29.792Z,24.56
2022-08-02T07:42:29.793Z,24.75
2022-08-02T07:43:29.791Z,24.80
2022-08-02T07:44:29.792Z,24.94
2022-08-02T07:45:29.785Z,25.05
2022-08-02T07:46:29.784Z,25.20
2022-08-02T07:47:29.782Z,25.39
2022-08-02T07:48:29.780Z,25.63
2022-08-02T07:49:29.886Z,25.67
2022-08-02T07:50:29.778Z,25.72
2022-08-02T07:51:29.771Z,25.74
2022-08-02T07:52:29.973Z,25.97
2022-08-02T07:53:50.260Z,25.96
2022-08-02T07:54:29.770Z,25.83
2022-08-02T07:55:39.074Z,25.97
2022-08-02T07:56:29.764Z,26.00
2022-08-02T07:57:29.761Z,26.13
2022-08-02T07:58:29.760Z,26.27
2022-08-02T07:59:29.756Z,26.29
2022-08-02T08:00:29.756Z,26.53
2022-08-02T08:01:29.791Z,26.65
2022-08-02T08:02:29.754Z,26.61
2022-08-02T08:03:29.751Z,26.64
2022-08-02T08:04:29.754Z,26.73
2022-08-02T08:05:29.745Z,26.83
2022-08-02T08:06:29.745Z,26.81
2022-08-02T08:07:29.741Z,26.83
2022-08-02T08:08:29.743Z,26.81
2022-08-02T08:09:29.740Z,26.93
2022-08-02T08:10:29.740Z,26.94
2022-08-02T08:11:29.736Z,26.97
2022-08-02T08:12:29.738Z,26.94
2022-08-02T08:13:29.733Z,26.97
2022-08-02T08:14:29.735Z,27.13
2022-08-02T08:15:29.731Z,27.05
2022-08-02T08:16:29.731Z,27.13
2022-08-02T08:17:29.728Z,27.15
2022-08-02T08:18:29.728Z,27.13
2022-08-02T08:19:49.961Z,27.25
2022-08-02T08:20:29.726Z,27.30
2022-08-02T08:21:29.721Z,27.39
2022-08-02T08:22:29.722Z,27.38
2022-08-02T08:23:29.720Z,27.30
2022-08-02T08:24:29.721Z,27.43
2022-08-02T08:25:29.717Z,27.42
2022-08-02T08:26:29.719Z,27.38
2022-08-02T08:27:29.716Z,27.45
2022-08-02T08:28:29.718Z,27.42
2022-08-02T08:29:29.713Z,27.53
2022-08-02T08:30:29.713Z,27.61
2022-08-02T08:31:29.712Z,27.59
2022-08-02T08:32:29.713Z,27.72
2022-08-02T08:33:29.711Z,27.72
2022-08-02T08:34:29.711Z,27.87
2022-08-02T08:35:29.706Z,27.95
2022-08-02T08:36:29.710Z,28.01
2022-08-02T08:37:29.706Z,28.13
2022-08-02T08:38:29.706Z,28.18
2022-08-02T08:39:29.705Z,28.32
2022-08-02T08:40:29.721Z,28.30
2022-08-02T08:41:30.128Z,28.38
2022-08-02T08:42:29.705Z,28.38
2022-08-02T08:43:29.705Z,28.40
2022-08-02T08:44:29.707Z,28.40
2022-08-02T08:45:29.701Z,28.55
2022-08-02T08:46:29.703Z,28.57
2022-08-02T08:47:33.460Z,28.64
2022-08-02T08:48:30.948Z,28.77
2022-08-02T08:49:29.728Z,28.74
2022-08-02T08:50:29.702Z,28.74
2022-08-02T08:51:29.698Z,28.83
2022-08-02T08:52:29.700Z,28.85
2022-08-02T08:53:36.931Z,28.89
2022-08-02T08:54:29.700Z,28.80
2022-08-02T08:55:29.698Z,28.67
2022-08-02T08:56:29.700Z,28.62
2022-08-02T08:57:29.701Z,28.72
2022-08-02T08:58:29.701Z,28.80
2022-08-02T08:59:29.696Z,28.82
2022-08-02T09:00:29.699Z,29.07
2022-08-02T09:01:49.830Z,29.08
2022-08-02T09:02:29.975Z,29.10
2022-08-02T09:03:33.802Z,29.07
2022-08-02T09:04:29.698Z,29.07
2022-08-02T09:05:29.700Z,29.07
2022-08-02T09:06:29.698Z,29.05
2022-08-02T09:07:29.702Z,29.08
2022-08-02T09:08:29.699Z,29.12
2022-08-02T09:09:29.700Z,29.21
2022-08-02T09:10:29.698Z,29.39
2022-08-02T09:11:29.702Z,29.63
2022-08-02T09:12:29.698Z,29.54
2022-08-02T09:13:37.561Z,29.67
2022-08-02T09:14:29.698Z,29.74
2022-08-02T09:15:29.701Z,29.79
2022-08-02T09:16:29.700Z,29.82
2022-08-02T09:17:29.702Z,29.81
2022-08-02T09:18:29.700Z,29.82
2022-08-02T09:19:29.703Z,29.81
2022-08-02T09:20:30.902Z,29.78
2022-08-02T09:21:29.703Z,29.66
2022-08-02T09:22:29.701Z,29.58
2022-08-02T09:23:29.705Z,29.69
2022-08-02T09:24:30.936Z,29.67
2022-08-02T09:25:29.707Z,29.51
2022-08-02T09:26:29.707Z,29.47
2022-08-02T09:27:29.707Z,29.36
2022-08-02T09:28:29.705Z,29.32
2022-08-02T09:29:29.710Z,29.08
2022-08-02T09:30:29.706Z,29.00
2022-08-02T09:31:29.711Z,28.95
2022-08-02T09:32:29.708Z,28.94
2022-08-02T09:33:29.708Z,29.08
2022-08-02T09:34:29.708Z,28.97
2022-08-02T09:35:29.709Z,29.03
2022-08-02T09:36:29.709Z,29.11
2022-08-02T09:37:29.715Z,29.17
2022-08-02T09:38:29.709Z,29.25
2022-08-02T09:40:29.712Z,29.49
2022-08-02T09:41:29.708Z,29.60
2022-08-02T09:42:30.083Z,29.79
2022-08-02T09:43:29.712Z,29.82
2022-08-02T09:44:29.713Z,29.88
2022-08-02T09:45:29.711Z,30.03
2022-08-02T09:46:29.714Z,29.99
2022-08-02T09:47:31.056Z,30.07
2022-08-02T09:48:29.715Z,30.07
2022-08-02T09:49:29.793Z,30.06
2022-08-02T09:50:29.716Z,30.07
2022-08-02T09:51:29.715Z,30.04
2022-08-02T09:52:43.374Z,30.01
2022-08-02T09:53:29.717Z,29.84
2022-08-02T09:54:29.719Z,30.00
2022-08-02T09:55:30.039Z,29.89
2022-08-02T09:58:29.722Z,29.86
2022-08-02T09:59:29.723Z,29.82
2022-08-02T10:00:50.721Z,29.82
2022-08-02T10:01:36.895Z,29.89
2022-08-02T10:02:29.842Z,29.84
2022-08-02T10:03:37.109Z,30.04
2022-08-02T10:04:29.726Z,29.95
2022-08-02T10:05:29.723Z,29.88
2022-08-02T10:06:29.726Z,29.71
2022-08-02T10:07:29.725Z,29.84
2022-08-02T10:08:29.778Z,29.84
2022-08-02T10:09:29.732Z,30.03
2022-08-02T10:10:29.731Z,30.13
2022-08-02T10:11:29.730Z,30.07
2022-08-02T10:12:29.734Z,30.11
2022-08-02T10:13:29.731Z,30.26
2022-08-02T10:14:29.731Z,30.36
2022-08-02T10:15:29.731Z,30.48
2022-08-02T10:16:29.734Z,30.54
2022-08-02T10:17:29.733Z,30.63
2022-08-02T10:18:38.901Z,30.70
2022-08-02T10:20:00.976Z,30.83
2022-08-02T10:20:29.740Z,30.93
2022-08-02T10:21:29.736Z,30.98
2022-08-02T10:22:29.741Z,31.04
2022-08-02T10:23:29.747Z,31.10
2022-08-02T10:24:29.745Z,31.20
2022-08-02T10:25:29.754Z,31.15
2022-08-02T10:26:29.746Z,31.00
2022-08-02T10:27:38.899Z,30.93
2022-08-02T10:28:29.749Z,31.01
2022-08-02T10:29:29.746Z,31.01
2022-08-02T10:30:29.749Z,30.97
2022-08-02T10:31:29.749Z,31.04
2022-08-02T10:32:29.754Z,31.13
2022-08-02T10:33:29.750Z,31.16
2022-08-02T10:34:31.829Z,31.18
2022-08-02T10:35:29.753Z,31.31
2022-08-02T10:36:29.758Z,31.30
2022-08-02T10:37:29.755Z,31.32
2022-08-02T10:38:29.761Z,31.28
2022-08-02T10:39:29.760Z,31.19
2022-08-02T10:40:29.764Z,31.30
2022-08-02T10:41:29.762Z,31.30
2022-08-02T10:42:29.766Z,31.16
2022-08-02T10:43:29.766Z,31.15
2022-08-02T10:44:29.770Z,31.13
2022-08-02T10:45:29.784Z,30.93
2022-08-02T10:46:29.773Z,30.75
2022-08-02T10:47:29.772Z,30.94
2022-08-02T10:48:29.776Z,30.86
2022-08-02T10:49:39.662Z,31.03
2022-08-02T10:50:29.779Z,31.12
2022-08-02T10:51:33.092Z,31.18
2022-08-02T10:52:29.784Z,31.37
2022-08-02T10:53:29.783Z,31.05
2022-08-02T10:54:29.786Z,30.97
2022-08-02T10:55:29.785Z,30.75
2022-08-02T10:56:29.792Z,30.83
2022-08-02T10:57:29.788Z,30.86
2022-08-02T10:58:30.061Z,30.91
2022-08-02T10:59:29.794Z,31.05
2022-08-02T11:00:29.795Z,31.25
2022-08-02T11:01:38.916Z,31.47
2022-08-02T11:02:29.798Z,31.69
2022-08-02T11:03:29.812Z,31.74
2022-08-02T11:04:29.803Z,31.90
2022-08-02T11:05:42.298Z,31.90
2022-08-02T11:06:29.808Z,32.03
2022-08-02T11:07:29.806Z,31.88
2022-08-02T11:08:29.811Z,31.84
2022-08-02T11:09:32.954Z,31.97
2022-08-02T11:10:29.815Z,32.02
2022-08-02T11:11:53.823Z,32.17
2022-08-02T11:12:29.818Z,32.31
2022-08-02T11:13:29.820Z,32.40
2022-08-02T11:14:29.822Z,32.43
2022-08-02T11:15:29.822Z,32.49
2022-08-02T11:16:29.828Z,32.56
2022-08-02T11:17:38.761Z,32.29
2022-08-02T11:18:29.831Z,32.09
2022-08-02T11:19:29.830Z,32.19
2022-08-02T11:20:29.835Z,32.13
2022-08-02T11:21:29.836Z,32.09
2022-08-02T11:22:29.840Z,32.10
2022-08-02T11:23:44.547Z,32.13
2022-08-02T11:24:29.853Z,32.10
2022-08-02T11:25:54.371Z,32.05
2022-08-02T11:26:29.849Z,32.07
2022-08-02T11:27:29.851Z,32.10
2022-08-02T11:28:29.856Z,32.13
2022-08-02T11:29:29.854Z,32.12
2022-08-02T11:30:29.858Z,32.21
2022-08-02T11:31:29.866Z,32.10
2022-08-02T11:32:30.745Z,32.24
2022-08-02T11:33:29.863Z,32.16
2022-08-02T11:34:37.628Z,32.32
2022-08-02T11:35:29.869Z,32.27
2022-08-02T11:36:29.874Z,32.14
2022-08-02T11:37:29.874Z,32.21
2022-08-02T11:38:29.880Z,32.28
2022-08-02T11:39:29.882Z,31.92
2022-08-02T11:40:32.503Z,31.99
2022-08-02T11:41:46.862Z,31.75
2022-08-02T11:42:29.886Z,31.85
2022-08-02T11:43:29.890Z,31.91
2022-08-02T11:44:29.895Z,32.09
2022-08-02T11:45:30.238Z,32.13
2022-08-02T11:46:29.897Z,32.24
2022-08-02T11:47:29.897Z,32.35
2022-08-02T11:48:29.902Z,32.39
2022-08-02T11:49:29.964Z,32.62
2022-08-02T11:50:30.714Z,32.72
2022-08-02T11:51:29.907Z,32.80
2022-08-02T11:52:29.911Z,32.88
2022-08-02T11:53:29.912Z,32.93
2022-08-02T11:54:29.918Z,32.96
2022-08-02T11:55:29.916Z,32.91
2022-08-02T11:56:29.923Z,32.07
2022-08-02T11:57:29.922Z,31.94
2022-08-02T11:58:29.927Z,31.88
2022-08-02T11:59:29.933Z,32.03
2022-08-02T12:00:30.520Z,32.06
2022-08-02T12:01:29.934Z,32.10
2022-08-02T12:02:29.944Z,32.14
2022-08-02T12:03:29.998Z,32.29
2022-08-02T12:04:29.944Z,32.40
2022-08-02T12:06:03.915Z,32.51
2022-08-02T12:06:29.947Z,32.58
2022-08-02T12:07:34.305Z,32.62
2022-08-02T12:08:29.953Z,32.68
2022-08-02T12:09:29.954Z,32.80
2022-08-02T12:10:29.958Z,32.87
2022-08-02T12:11:38.880Z,33.05
2022-08-02T12:12:29.965Z,33.17
2022-08-02T12:13:29.964Z,33.31
2022-08-02T12:14:29.970Z,33.28
2022-08-02T12:15:29.970Z,33.35
2022-08-02T12:16:29.978Z,33.47
2022-08-02T12:17:29.979Z,33.57
2022-08-02T12:18:29.980Z,33.65
2022-08-02T12:19:29.982Z,33.55
2022-08-02T12:20:29.988Z,33.52
2022-08-02T12:21:29.987Z,33.52
2022-08-02T12:22:30.043Z,33.57
2022-08-02T12:23:29.995Z,33.63
2022-08-02T12:24:30.013Z,33.62
2022-08-02T12:25:34.568Z,33.53
2022-08-02T12:26:30.119Z,33.44
2022-08-02T12:27:30.008Z,33.47
2022-08-02T12:28:30.013Z,33.59
2022-08-02T12:29:58.471Z,33.70
2022-08-02T12:30:30.021Z,33.79
2022-08-02T12:31:30.020Z,33.82
2022-08-02T12:32:30.027Z,33.87
2022-08-02T12:33:30.027Z,34.01
2022-08-02T12:34:32.324Z,33.93
2022-08-02T12:35:30.034Z,33.81
2022-08-02T12:36:30.062Z,33.45
2022-08-02T12:37:30.042Z,33.29
2022-08-02T12:38:30.046Z,33.37
2022-08-02T12:39:31.497Z,33.40
2022-08-02T12:40:30.053Z,33.43
2022-08-02T12:41:31.080Z,33.49
2022-08-02T12:42:30.063Z,33.60
2022-08-02T12:43:30.060Z,33.63
2022-08-02T12:44:30.065Z,33.68
2022-08-02T12:45:39.290Z,33.70
2022-08-02T12:46:30.074Z,33.74
2022-08-02T12:47:35.591Z,33.77
2022-08-02T12:48:36.673Z,33.92
2022-08-02T12:49:30.125Z,33.87
2022-08-02T12:50:30.092Z,33.99
2022-08-02T12:51:57.705Z,34.14
2022-08-02T12:52:30.094Z,34.15
2022-08-02T12:53:30.095Z,33.93
2022-08-02T12:54:30.797Z,33.86
2022-08-02T12:55:59.335Z,33.40
2022-08-02T12:56:30.112Z,33.02
2022-08-02T12:57:30.109Z,32.76